createdAt,value
2022-11-23T00:00:51.098Z,1.10
2022-11-23T00:03:36.826Z,1.10
2022-11-23T00:06:23.510Z,1.10
2022-11-23T00:09:10.901Z,1.10
2022-11-23T00:11:59.673Z,1.10
2022-11-23T00:14:49.481Z,1.20
2022-11-23T00:17:36.823Z,1.20
2022-11-23T00:20:22.077Z,1.20
2022-11-23T00:23:09.998Z,1.20
2022-11-23T00:25:55.152Z,1.20
2022-11-23T00:28:42.249Z,1.30
2022-11-23T00:31:28.184Z,1.20
2022-11-23T00:34:16.271Z,1.20
2022-11-23T00:37:02.162Z,1.30
2022-11-23T00:39:47.978Z,1.30
2022-11-23T00:42:37.878Z,1.30
2022-11-23T00:45:24.035Z,1.30
2022-11-23T00:48:10.241Z,1.20
2022-11-23T00:50:55.557Z,1.20
2022-11-23T00:53:41.177Z,1.20
2022-11-23T00:56:29.711Z,1.30
2022-11-23T00:59:15.032Z,1.30
2022-11-23T01:02:00.630Z,1.40
2022-11-23T01:04:46.131Z,1.40
2022-11-23T01:07:31.524Z,1.50
2022-11-23T01:10:19.301Z,1.40
2022-11-23T01:13:04.523Z,1.30
2022-11-23T01:15:50.998Z,1.30
2022-11-23T01:18:38.356Z,1.20
2022-11-23T01:21:24.976Z,1.20
2022-11-23T01:24:14.120Z,1.20
2022-11-23T01:27:02.577Z,1.20
2022-11-23T01:29:49.007Z,1.10
2022-11-23T01:32:34.169Z,1.20
2022-11-23T01:35:22.179Z,1.30
2022-11-23T01:38:08.237Z,1.50
2022-11-23T01:40:55.788Z,1.60
2022-11-23T01:43:43.730Z,1.70
2022-11-23T01:46:29.346Z,1.80
2022-11-23T01:49:17.903Z,1.90
2022-11-23T01:52:11.636Z,2.00
2022-11-23T01:55:02.588Z,2.00
2022-11-23T01:57:51.030Z,2.10
2022-11-23T02:00:37.067Z,2.20
2022-11-23T02:03:23.534Z,2.20
2022-11-23T02:06:17.052Z,2.30
2022-11-23T02:09:04.976Z,2.30
2022-11-23T02:11:53.632Z,2.40
2022-11-23T02:14:39.976Z,2.40
2022-11-23T02:17:25.703Z,2.40
2022-11-23T02:20:17.601Z,2.50
2022-11-23T02:23:06.353Z,2.50
2022-11-23T02:26:01.869Z,2.50
2022-11-23T02:29:01.870Z,2.50
2022-11-23T02:31:47.198Z,2.50
2022-11-23T02:34:35.743Z,2.50
2022-11-23T02:37:21.370Z,2.50
2022-11-23T02:40:25.934Z,2.50
2022-11-23T02:43:11.633Z,2.50
2022-11-23T02:46:02.371Z,2.50
2022-11-23T02:48:50.205Z,2.50
2022-11-23T02:51:35.676Z,2.40
2022-11-23T02:54:21.008Z,2.40
2022-11-23T02:57:06.944Z,2.30
2022-11-23T02:59:52.599Z,2.40
2022-11-23T03:02:42.936Z,2.30
2022-11-23T03:05:28.198Z,2.20
2022-11-23T03:08:13.486Z,2.20
2022-11-23T03:11:02.005Z,2.00
2022-11-23T03:13:47.271Z,2.00
2022-11-23T03:16:34.149Z,1.90
2022-11-23T03:19:19.643Z,1.90
2022-11-23T03:22:07.614Z,1.80
2022-11-23T03:24:53.406Z,1.70
2022-11-23T03:27:41.799Z,1.60
2022-11-23T03:30:26.945Z,1.50
2022-11-23T03:33:12.402Z,1.50
2022-11-23T03:35:57.800Z,1.40
2022-11-23T03:38:43.288Z,1.40
2022-11-23T03:41:28.885Z,1.30
2022-11-23T03:44:17.226Z,1.30
2022-11-23T03:47:04.593Z,1.30
2022-11-23T03:49:49.956Z,1.20
2022-11-23T03:52:37.476Z,1.20
2022-11-23T03:55:22.960Z,1.20
2022-11-23T03:58:08.342Z,1.10
2022-11-23T04:00:54.788Z,1.10
2022-11-23T04:03:40.280Z,1.10
2022-11-23T04:06:26.435Z,1.10
2022-11-23T04:09:13.176Z,1.10
2022-11-23T04:11:58.623Z,1.10
2022-11-23T04:14:44.251Z,1.10
2022-11-23T04:17:31.588Z,1.10
2022-11-23T04:20:17.292Z,1.10
2022-11-23T04:23:02.719Z,1.20
2022-11-23T04:25:50.412Z,1.20
2022-11-23T04:28:35.610Z,1.20
2022-11-23T04:31:21.557Z,1.20
2022-11-23T04:34:07.006Z,1.20
2022-11-23T04:36:52.484Z,1.20
2022-11-23T04:39:37.921Z,1.20
2022-11-23T04:42:26.512Z,1.20
2022-11-23T04:45:14.433Z,1.20
2022-11-23T04:47:59.779Z,1.10
2022-11-23T04:50:46.940Z,1.00
2022-11-23T04:53:32.635Z,1.00
2022-11-23T04:56:18.336Z,1.00
2022-11-23T04:59:03.650Z,1.10
2022-11-23T05:01:49.796Z,1.00
2022-11-23T05:04:35.914Z,1.10
2022-11-23T05:07:21.452Z,1.10
2022-11-23T05:10:07.810Z,1.10
2022-11-23T05:12:58.426Z,1.10
2022-11-23T05:15:44.169Z,1.20
2022-11-23T05:18:29.725Z,1.30
2022-11-23T05:21:18.212Z,1.30
2022-11-23T05:24:04.340Z,1.40
2022-11-23T05:26:55.943Z,1.50
2022-11-23T05:29:41.680Z,1.60
2022-11-23T05:32:26.948Z,1.70
2022-11-23T05:35:12.758Z,1.70
2022-11-23T05:37:58.699Z,1.70
2022-11-23T05:40:46.725Z,1.70
2022-11-23T05:43:34.089Z,1.80
2022-11-23T05:46:21.397Z,1.90
2022-11-23T05:49:06.902Z,1.90
2022-11-23T05:51:52.314Z,2.00
2022-11-23T05:54:37.789Z,1.90
2022-11-23T05:57:22.995Z,1.90
2022-11-23T06:00:12.465Z,2.00
2022-11-23T06:03:02.113Z,2.10
2022-11-23T06:05:52.749Z,2.20
2022-11-23T06:08:44.403Z,2.10
2022-11-23T06:11:32.481Z,2.10
2022-11-23T06:14:17.741Z,2.00
2022-11-23T06:17:03.398Z,1.90
2022-11-23T06:19:48.640Z,1.70
2022-11-23T06:22:34.299Z,1.60
2022-11-23T06:25:20.075Z,1.40
2022-11-23T06:28:05.792Z,1.30
2022-11-23T06:30:51.441Z,1.20
2022-11-23T06:33:38.867Z,1.10
2022-11-23T06:36:26.502Z,1.10
2022-11-23T06:39:11.625Z,1.00
2022-11-23T06:42:10.954Z,0.90
2022-11-23T06:45:05.457Z,0.90
2022-11-23T06:47:50.953Z,0.80
2022-11-23T06:50:36.408Z,0.70
2022-11-23T06:53:21.860Z,0.70
2022-11-23T06:56:08.340Z,0.70
2022-11-23T06:58:53.922Z,0.70
2022-11-23T07:01:39.497Z,0.70
2022-11-23T07:04:25.265Z,0.80
2022-11-23T07:07:10.874Z,0.70
2022-11-23T07:09:57.658Z,0.70
2022-11-23T07:12:43.775Z,0.80
2022-11-23T07:15:34.354Z,0.70
2022-11-23T07:18:19.683Z,0.80
2022-11-23T07:21:05.007Z,0.80
2022-11-23T07:23:52.770Z,0.80
2022-11-23T07:26:38.184Z,0.80
2022-11-23T07:29:23.963Z,0.70
2022-11-23T07:32:11.441Z,0.80
2022-11-23T07:34:59.020Z,0.80
2022-11-23T07:37:44.786Z,0.90
2022-11-23T07:40:30.822Z,1.00
2022-11-23T07:43:21.057Z,1.10
2022-11-23T07:46:08.732Z,1.10
2022-11-23T07:48:59.289Z,1.20
2022-11-23T07:51:44.701Z,1.20
2022-11-23T07:54:30.646Z,1.20
2022-11-23T07:57:16.202Z,1.20
2022-11-23T08:00:01.725Z,1.20
2022-11-23T08:03:11.402Z,1.20
2022-11-23T08:05:53.131Z,1.30
2022-11-23T08:08:39.058Z,1.30
2022-11-23T08:11:27.188Z,1.30
2022-11-23T08:14:13.032Z,1.40
2022-11-23T08:17:00.713Z,1.50
2022-11-23T08:19:46.067Z,1.70
2022-11-23T08:22:34.446Z,1.90
2022-11-23T08:25:19.623Z,2.10
2022-11-23T08:28:05.965Z,2.50
2022-11-23T08:30:51.518Z,2.60
2022-11-23T08:33:37.261Z,2.90
2022-11-23T08:36:24.958Z,3.20
2022-11-23T08:39:11.195Z,3.40
2022-11-23T08:41:56.710Z,3.50
2022-11-23T08:44:42.387Z,3.60
2022-11-23T08:47:27.581Z,3.70
2022-11-23T08:50:15.965Z,3.80
2022-11-23T08:53:01.955Z,4.00
2022-11-23T08:55:47.382Z,4.10
2022-11-23T08:58:33.038Z,4.20
2022-11-23T09:01:18.839Z,4.30
2022-11-23T09:04:04.768Z,4.30
2022-11-23T09:06:50.417Z,4.20
2022-11-23T09:09:36.056Z,4.20
2022-11-23T09:12:21.777Z,4.10
2022-11-23T09:15:07.622Z,4.20
2022-11-23T09:17:53.210Z,4.10
2022-11-23T09:20:40.765Z,3.90
2022-11-23T09:23:27.097Z,3.70
2022-11-23T09:26:12.786Z,3.50
2022-11-23T09:28:58.398Z,3.40
2022-11-23T09:31:44.007Z,3.30
2022-11-23T09:34:31.890Z,3.30
2022-11-23T09:37:17.614Z,3.20
2022-11-23T09:40:09.383Z,3.20
2022-11-23T09:43:00.375Z,3.10
2022-11-23T09:45:58.562Z,3.10
2022-11-23T09:48:56.102Z,3.10
2022-11-23T09:51:43.254Z,3.00
2022-11-23T09:54:31.039Z,3.00
2022-11-23T09:57:21.855Z,3.00
2022-11-23T10:00:17.060Z,3.00
2022-11-23T10:03:02.587Z,3.10
2022-11-23T10:06:02.067Z,3.10
2022-11-23T10:09:25.124Z,3.10
2022-11-23T10:12:16.464Z,3.10
2022-11-23T10:15:30.727Z,3.10
2022-11-23T10:18:38.879Z,3.20
2022-11-23T10:21:33.456Z,3.20
2022-11-23T10:24:24.264Z,3.30
2022-11-23T10:27:18.003Z,3.40
2022-11-23T10:30:03.822Z,3.40
2022-11-23T10:33:05.245Z,3.50
2022-11-23T10:35:52.713Z,3.60
2022-11-23T10:38:37.886Z,3.70
2022-11-23T10:41:23.688Z,3.80
2022-11-23T10:44:34.565Z,3.90
2022-11-23T10:47:39.303Z,4.00
2022-11-23T10:50:27.324Z,4.10
2022-11-23T10:53:21.269Z,4.20
2022-11-23T10:56:13.271Z,4.30
2022-11-23T10:59:01.085Z,4.50
2022-11-23T11:02:19.492Z,4.60
2022-11-23T11:05:46.017Z,4.80
2022-11-23T11:08:35.982Z,5.00
2022-11-23T11:11:45.926Z,5.20
2022-11-23T11:14:42.775Z,5.50
2022-11-23T11:17:34.554Z,5.80
2022-11-23T11:20:28.783Z,6.10
2022-11-23T11:23:20.296Z,6.50
2022-11-23T11:26:29.971Z,6.80
2022-11-23T11:29:38.103Z,6.80
2022-11-23T11:32:52.563Z,6.50
2022-11-23T11:35:43.396Z,6.50
2022-11-23T11:38:37.049Z,6.70
2022-11-23T11:41:25.433Z,7.00
2022-11-23T11:44:22.662Z,7.30
2022-11-23T11:47:39.602Z,7.20
2022-11-23T11:50:35.005Z,7.40
2022-11-23T11:53:30.790Z,7.70
2022-11-23T11:56:35.203Z,7.90
2022-11-23T11:59:45.370Z,8.20
2022-11-23T12:02:55.327Z,8.40
2022-11-23T12:05:49.919Z,8.50
2022-11-23T12:08:50.902Z,8.60
2022-11-23T12:11:36.650Z,8.50
2022-11-23T12:14:23.575Z,8.50
2022-11-23T12:17:32.399Z,8.40
2022-11-23T12:20:39.152Z,8.50
2022-11-23T12:23:39.162Z,8.50
2022-11-23T12:26:55.967Z,8.60
2022-11-23T12:30:03.993Z,8.50
2022-11-23T12:33:11.681Z,8.10
2022-11-23T12:36:09.511Z,7.70
2022-11-23T12:38:54.964Z,7.50
2022-11-23T12:41:51.329Z,7.50
2022-11-23T12:45:06.557Z,7.60
2022-11-23T12:48:03.980Z,7.70
2022-11-23T12:50:55.139Z,7.80
2022-11-23T12:54:01.939Z,7.80
2022-11-23T12:57:06.597Z,7.90
2022-11-23T13:00:23.679Z,8.00
2022-11-23T13:03:35.806Z,8.00
2022-11-23T13:06:24.273Z,7.90
2022-11-23T13:09:19.705Z,8.00
2022-11-23T13:12:40.395Z,8.10
2022-11-23T13:16:05.082Z,8.20
2022-11-23T13:19:28.339Z,8.30
2022-11-23T13:22:21.620Z,8.20
2022-11-23T13:25:10.489Z,8.30
2022-11-23T13:28:21.376Z,8.60
2022-11-23T13:31:17.690Z,8.90
2022-11-23T13:34:24.933Z,10.60
2022-11-23T13:37:12.809Z,12.90
2022-11-23T13:40:01.166Z,14.60
2022-11-23T13:42:48.376Z,13.50
2022-11-23T13:45:36.650Z,11.80
2022-11-23T13:51:33.560Z,10.40
2022-11-23T13:54:24.887Z,9.90
2022-11-23T13:57:13.163Z,9.50
2022-11-23T14:00:36.229Z,9.10
2022-11-23T14:03:50.742Z,8.80
2022-11-23T14:06:56.833Z,8.50
2022-11-23T14:09:42.417Z,8.20
2022-11-23T14:12:31.002Z,8.10
2022-11-23T14:15:29.149Z,8.10
2022-11-23T14:18:30.264Z,7.90
2022-11-23T14:21:45.085Z,7.80
2022-11-23T14:24:45.001Z,7.80
2022-11-23T14:27:55.686Z,7.60
2022-11-23T14:31:06.891Z,7.50
2022-11-23T14:34:16.270Z,7.30
2022-11-23T14:37:19.649Z,7.00
2022-11-23T14:40:34.046Z,6.60
2022-11-23T14:43:20.009Z,6.30
2022-11-23T14:46:07.797Z,6.10
2022-11-23T14:49:09.506Z,5.80
2022-11-23T14:51:54.811Z,5.60
2022-11-23T14:54:46.619Z,5.40
2022-11-23T14:57:43.035Z,5.30
2022-11-23T15:00:41.489Z,5.10
2022-11-23T15:06:45.700Z,4.90
2022-11-23T15:09:40.985Z,4.80
2022-11-23T15:12:28.647Z,4.70
2022-11-23T15:15:19.828Z,4.60
2022-11-23T15:18:05.231Z,4.50
2022-11-23T15:20:52.775Z,4.40
2022-11-23T15:23:49.335Z,4.40
2022-11-23T15:26:50.493Z,4.20
2022-11-23T15:29:38.673Z,4.10
2022-11-23T15:32:35.558Z,4.00
2022-11-23T15:35:26.341Z,4.00
2022-11-23T15:38:23.429Z,4.10
2022-11-23T15:41:09.793Z,4.20
2022-11-23T15:43:57.462Z,4.20
2022-11-23T15:46:43.820Z,4.30
2022-11-23T15:49:32.265Z,4.50
2022-11-23T15:52:21.672Z,4.60
2022-11-23T15:55:13.020Z,4.80
2022-11-23T15:58:00.254Z,4.90
2022-11-23T16:01:06.999Z,5.00
2022-11-23T16:04:02.214Z,5.00
2022-11-23T16:06:50.565Z,5.00
2022-11-23T16:09:53.944Z,5.00
2022-11-23T16:12:51.624Z,5.00
2022-11-23T16:15:43.520Z,5.10
2022-11-23T16:18:32.746Z,5.10
2022-11-23T16:21:20.115Z,5.00
2022-11-23T16:24:22.091Z,5.10
2022-11-23T16:27:16.704Z,5.10
2022-11-23T16:30:04.686Z,5.00
2022-11-23T16:32:54.693Z,5.00
2022-11-23T16:35:40.052Z,4.90
2022-11-23T16:38:25.514Z,4.70
2022-11-23T16:41:11.105Z,4.70
2022-11-23T16:43:56.786Z,4.60
2022-11-23T16:46:47.412Z,4.50
2022-11-23T16:49:33.181Z,4.40
2022-11-23T16:52:19.994Z,4.30
2022-11-23T16:55:08.027Z,4.20
2022-11-23T16:57:53.921Z,4.10
2022-11-23T17:00:39.911Z,4.00
2022-11-23T17:03:27.419Z,3.90
2022-11-23T17:06:15.532Z,3.90
2022-11-23T17:09:07.906Z,3.80
2022-11-23T17:11:54.010Z,3.70
2022-11-23T17:14:42.667Z,3.60
2022-11-23T17:17:36.023Z,3.50
2022-11-23T17:20:21.293Z,3.50
2022-11-23T17:23:06.695Z,3.50
2022-11-23T17:25:52.147Z,3.40
2022-11-23T17:28:37.747Z,3.40
2022-11-23T17:31:23.402Z,3.30
2022-11-23T17:34:09.211Z,3.30
2022-11-23T17:36:57.000Z,3.30
2022-11-23T17:39:45.061Z,3.30
2022-11-23T17:42:30.545Z,3.30
2022-11-23T17:45:16.107Z,3.30
2022-11-23T17:48:03.712Z,3.20
2022-11-23T17:50:50.051Z,3.10
2022-11-23T17:53:38.265Z,3.10
2022-11-23T17:56:25.811Z,3.10
2022-11-23T17:59:11.165Z,3.00
2022-11-23T18:01:57.828Z,3.00
2022-11-23T18:04:43.469Z,3.00
2022-11-23T18:07:29.091Z,3.00
2022-11-23T18:10:14.884Z,3.00
2022-11-23T18:13:00.224Z,2.90
2022-11-23T18:15:46.451Z,2.90
2022-11-23T18:18:32.212Z,2.90
2022-11-23T18:21:18.487Z,2.90
2022-11-23T18:24:05.050Z,2.80
2022-11-23T18:26:52.675Z,2.70
2022-11-23T18:29:40.253Z,2.80
2022-11-23T18:32:25.888Z,2.70
2022-11-23T18:35:11.372Z,2.60
2022-11-23T18:37:57.390Z,2.60
2022-11-23T18:40:45.161Z,2.60
2022-11-23T18:43:30.885Z,2.60
2022-11-23T18:46:19.520Z,2.60
2022-11-23T18:49:05.728Z,2.50
2022-11-23T18:51:53.195Z,2.50
2022-11-23T18:54:38.391Z,2.40
2022-11-23T18:57:28.377Z,2.50
2022-11-23T19:00:15.908Z,2.50
2022-11-23T19:03:02.539Z,2.40
2022-11-23T19:05:47.790Z,2.40
2022-11-23T19:08:33.631Z,2.40
2022-11-23T19:11:24.169Z,2.30
2022-11-23T19:14:10.766Z,2.30
2022-11-23T19:16:56.885Z,2.20
2022-11-23T19:19:44.501Z,2.20
2022-11-23T19:22:31.921Z,2.20
2022-11-23T19:25:18.329Z,2.20
2022-11-23T19:28:03.528Z,2.10
2022-11-23T19:30:49.111Z,2.10
2022-11-23T19:33:37.164Z,2.10
2022-11-23T19:36:24.294Z,2.10
2022-11-23T19:39:10.291Z,2.10
2022-11-23T19:41:56.629Z,2.10
2022-11-23T19:44:41.804Z,2.10
2022-11-23T19:47:29.605Z,2.00
2022-11-23T19:50:15.227Z,2.00
2022-11-23T19:53:16.284Z,2.00
2022-11-23T19:56:16.963Z,2.00
2022-11-23T19:59:02.742Z,2.00
2022-11-23T20:01:48.515Z,1.90
2022-11-23T20:04:37.160Z,1.90
2022-11-23T20:07:25.280Z,2.00
2022-11-23T20:10:10.755Z,1.90
2022-11-23T20:12:55.892Z,1.90
2022-11-23T20:15:48.419Z,1.90
2022-11-23T20:18:34.176Z,1.90
2022-11-23T20:21:20.042Z,1.90
2022-11-23T20:24:08.521Z,1.90
2022-11-23T20:26:53.974Z,1.90
2022-11-23T20:29:40.363Z,1.80
2022-11-23T20:32:28.207Z,1.80
2022-11-23T20:35:16.417Z,1.80
2022-11-23T20:38:02.438Z,1.70
2022-11-23T20:40:50.573Z,1.70
2022-11-23T20:43:38.199Z,1.70
2022-11-23T20:46:53.571Z,1.80
2022-11-23T20:49:33.140Z,1.60
2022-11-23T20:52:20.691Z,1.70
2022-11-23T20:55:08.815Z,1.60
2022-11-23T20:57:57.318Z,1.60
2022-11-23T21:00:48.677Z,1.60
2022-11-23T21:03:41.203Z,1.60
2022-11-23T21:06:28.440Z,1.60
2022-11-23T21:09:17.150Z,1.60
2022-11-23T21:12:21.003Z,1.60
2022-11-23T21:15:07.267Z,1.50
2022-11-23T21:17:54.985Z,1.50
2022-11-23T21:20:43.382Z,1.50
2022-11-23T21:23:34.154Z,1.50
2022-11-23T21:26:19.704Z,1.50
2022-11-23T21:29:11.481Z,1.40
2022-11-23T21:31:57.198Z,1.40
2022-11-23T21:34:45.622Z,1.30
2022-11-23T21:37:31.513Z,1.30
2022-11-23T21:40:17.738Z,1.30
2022-11-23T21:43:05.565Z,1.20
2022-11-23T21:46:05.828Z,1.40
2022-11-23T21:48:56.382Z,1.30
2022-11-23T21:51:45.662Z,1.30
2022-11-23T21:54:32.507Z,1.20
2022-11-23T21:57:17.954Z,1.20
2022-11-23T22:00:10.011Z,1.40
2022-11-23T22:02:55.596Z,1.30
2022-11-23T22:05:41.147Z,1.40
2022-11-23T22:08:29.294Z,1.30
2022-11-23T22:11:26.497Z,1.40
2022-11-23T22:14:14.444Z,1.60
2022-11-23T22:17:02.232Z,1.80
2022-11-23T22:19:48.569Z,1.80
2022-11-23T22:22:33.883Z,1.90
2022-11-23T22:25:19.997Z,2.00
2022-11-23T22:28:05.630Z,2.20
2022-11-23T22:30:54.703Z,2.20
2022-11-23T22:33:40.531Z,2.20
2022-11-23T22:36:27.807Z,2.40
2022-11-23T22:39:13.355Z,2.50
2022-11-23T22:41:59.033Z,2.50
2022-11-23T22:44:47.171Z,2.60
2022-11-23T22:47:35.121Z,2.60
2022-11-23T22:50:20.895Z,2.50
2022-11-23T22:53:06.219Z,2.50
2022-11-23T22:55:52.185Z,2.50
2022-11-23T22:58:37.473Z,2.60
2022-11-23T23:01:28.736Z,2.60
2022-11-23T23:04:14.645Z,2.80
2022-11-23T23:07:04.595Z,2.70
2022-11-23T23:09:49.843Z,2.70
2022-11-23T23:12:35.378Z,2.70
2022-11-23T23:15:21.654Z,2.70
2022-11-23T23:18:08.209Z,2.80
2022-11-23T23:21:04.410Z,2.70
2022-11-23T23:23:52.026Z,2.70
2022-11-23T23:26:37.701Z,2.70
2022-11-23T23:29:23.304Z,2.70
2022-11-23T23:32:09.098Z,2.70
2022-11-23T23:34:54.668Z,2.70
2022-11-23T23:37:40.842Z,2.70
2022-11-23T23:40:28.654Z,2.70
2022-11-23T23:43:14.644Z,2.70
2022-11-23T23:46:02.029Z,2.70
2022-11-23T23:48:53.168Z,2.80
2022-11-23T23:51:39.454Z,2.70
2022-11-23T23:54:25.344Z,2.80
2022-11-23T23:57:10.776Z,2.70
2022-11-23T23:59:58.717Z,2.80
